createdAt,value
2022-12-11T00:01:50.333Z,11.70
2022-12-11T00:04:18.199Z,11.60
2022-12-11T00:06:50.360Z,11.60
2022-12-11T00:09:22.283Z,11.10
2022-12-11T00:11:57.808Z,11.40
2022-12-11T00:14:29.030Z,11.40
2022-12-11T00:17:05.845Z,11.50
2022-12-11T00:19:39.712Z,11.70
2022-12-11T00:22:08.073Z,11.60
2022-12-11T00:24:35.958Z,11.30
2022-12-11T00:27:10.393Z,11.50
2022-12-11T00:29:47.186Z,11.20
2022-12-11T00:32:17.890Z,11.30
2022-12-11T00:35:04.315Z,11.30
2022-12-11T00:37:32.261Z,11.60
2022-12-11T00:40:18.597Z,11.80
2022-12-11T00:42:55.482Z,11.50
2022-12-11T00:45:26.356Z,11.50
2022-12-11T00:48:06.554Z,11.40
2022-12-11T00:50:41.234Z,11.40
2022-12-11T00:53:15.487Z,11.30
2022-12-11T00:55:49.232Z,11.20
2022-12-11T00:58:18.761Z,11.30
2022-12-11T01:00:48.211Z,11.50
2022-12-11T01:03:16.892Z,11.60
2022-12-11T01:05:52.973Z,11.30
2022-12-11T01:08:20.939Z,11.10
2022-12-11T01:10:48.162Z,11.30
2022-12-11T01:13:23.436Z,11.00
2022-12-11T01:15:58.562Z,10.80
2022-12-11T01:18:29.362Z,10.80
2022-12-11T01:20:57.300Z,10.90
2022-12-11T01:23:31.046Z,11.20
2022-12-11T01:25:58.902Z,11.10
2022-12-11T01:28:29.854Z,10.60
2022-12-11T01:31:11.027Z,10.70
2022-12-11T01:33:42.416Z,10.70
2022-12-11T01:36:12.096Z,10.00
2022-12-11T01:38:58.222Z,9.50
2022-12-11T01:41:26.129Z,9.40
2022-12-11T01:44:08.727Z,9.30
2022-12-11T01:46:38.294Z,8.90
2022-12-11T01:49:10.538Z,8.60
2022-12-11T01:51:52.421Z,8.90
2022-12-11T01:54:23.257Z,9.30
2022-12-11T01:56:53.270Z,9.00
2022-12-11T01:59:26.094Z,8.70
2022-12-11T02:02:07.256Z,8.90
2022-12-11T02:04:39.156Z,9.20
2022-12-11T02:07:13.222Z,9.10
2022-12-11T02:09:46.060Z,8.40
2022-12-11T02:12:27.318Z,8.80
2022-12-11T02:15:11.133Z,9.30
2022-12-11T02:17:48.400Z,9.60
2022-12-11T02:20:25.459Z,9.20
2022-12-11T02:23:21.930Z,9.40
2022-12-11T02:25:58.401Z,9.70
2022-12-11T02:28:36.126Z,9.60
2022-12-11T02:31:11.868Z,9.90
2022-12-11T02:33:54.160Z,10.30
2022-12-11T02:36:29.437Z,10.60
2022-12-11T02:38:59.843Z,10.00
2022-12-11T02:41:29.008Z,10.30
2022-12-11T02:44:05.670Z,10.60
2022-12-11T02:46:38.147Z,10.80
2022-12-11T02:49:10.725Z,11.00
2022-12-11T02:51:45.221Z,10.80
2022-12-11T02:54:21.002Z,10.80
2022-12-11T02:56:53.309Z,10.70
2022-12-11T02:59:30.962Z,10.30
2022-12-11T03:02:02.304Z,10.00
2022-12-11T03:04:50.008Z,10.10
2022-12-11T03:07:32.716Z,10.00
2022-12-11T03:10:03.585Z,9.60
2022-12-11T03:12:35.258Z,9.30
2022-12-11T03:15:08.690Z,9.30
2022-12-11T03:17:45.478Z,9.40
2022-12-11T03:20:23.016Z,9.00
2022-12-11T03:23:02.217Z,8.60
2022-12-11T03:25:40.704Z,9.00
2022-12-11T03:28:15.887Z,9.40
2022-12-11T03:30:46.331Z,9.80
2022-12-11T03:33:20.495Z,10.00
2022-12-11T03:35:53.309Z,10.20
2022-12-11T03:38:29.258Z,10.50
2022-12-11T03:41:03.178Z,10.50
2022-12-11T03:43:39.843Z,10.60
2022-12-11T03:46:14.336Z,10.70
2022-12-11T03:48:56.083Z,10.40
2022-12-11T03:51:25.144Z,10.10
2022-12-11T03:53:54.278Z,10.00
2022-12-11T03:56:31.412Z,10.00
2022-12-11T03:58:59.566Z,9.90
2022-12-11T04:01:29.030Z,10.20
2022-12-11T04:04:00.042Z,10.40
2022-12-11T04:06:28.037Z,10.60
2022-12-11T04:09:04.741Z,10.60
2022-12-11T04:11:35.535Z,10.40
2022-12-11T04:14:27.888Z,10.70
2022-12-11T04:17:03.303Z,10.70
2022-12-11T04:20:05.948Z,10.80
2022-12-11T04:22:47.739Z,11.00
2022-12-11T04:25:33.712Z,10.80
2022-12-11T04:28:01.597Z,10.80
2022-12-11T04:30:35.381Z,10.70
2022-12-11T04:33:13.629Z,10.90
2022-12-11T04:35:41.513Z,10.80
2022-12-11T04:38:30.877Z,11.10
2022-12-11T04:41:16.946Z,11.10
2022-12-11T04:43:45.440Z,10.10
2022-12-11T04:46:17.838Z,10.20
2022-12-11T04:48:57.381Z,10.20
2022-12-11T04:51:31.397Z,9.80
2022-12-11T04:54:05.182Z,9.90
2022-12-11T04:56:33.035Z,10.10
2022-12-11T04:59:01.872Z,10.30
2022-12-11T05:01:32.552Z,10.50
2022-12-11T05:04:16.887Z,10.00
2022-12-11T05:06:44.984Z,9.90
2022-12-11T05:09:15.689Z,9.90
2022-12-11T05:11:43.624Z,9.40
2022-12-11T05:14:14.629Z,9.30
2022-12-11T05:16:42.467Z,9.40
2022-12-11T05:19:10.442Z,9.70
2022-12-11T05:21:47.702Z,9.90
2022-12-11T05:24:18.334Z,9.90
2022-12-11T05:26:52.301Z,9.90
2022-12-11T05:29:20.166Z,9.90
2022-12-11T05:31:49.936Z,10.00
2022-12-11T05:34:20.674Z,9.80
2022-12-11T05:36:52.698Z,9.70
2022-12-11T05:39:20.665Z,9.70
2022-12-11T05:41:51.497Z,9.90
2022-12-11T05:44:19.682Z,9.60
2022-12-11T05:46:50.745Z,9.60
2022-12-11T05:52:04.835Z,9.80
2022-12-11T05:54:39.078Z,9.20
2022-12-11T05:57:06.993Z,9.40
2022-12-11T05:59:39.585Z,9.60
2022-12-11T06:02:10.634Z,9.60
2022-12-11T06:04:38.543Z,9.80
2022-12-11T06:07:07.745Z,9.90
2022-12-11T06:09:35.613Z,10.00
2022-12-11T06:12:03.463Z,10.10
2022-12-11T06:14:31.359Z,9.70
2022-12-11T06:17:08.381Z,9.10
2022-12-11T06:19:42.431Z,8.40
2022-12-11T06:22:14.762Z,8.10
2022-12-11T06:24:42.661Z,7.70
2022-12-11T06:27:10.583Z,7.70
2022-12-11T06:29:47.550Z,7.40
2022-12-11T06:32:15.399Z,7.20
2022-12-11T06:34:49.326Z,7.50
2022-12-11T06:37:18.521Z,7.90
2022-12-11T06:39:46.414Z,8.30
2022-12-11T06:42:20.123Z,8.30
2022-12-11T06:44:54.013Z,8.60
2022-12-11T06:47:31.029Z,8.90
2022-12-11T06:50:01.527Z,8.90
2022-12-11T06:52:30.799Z,8.90
2022-12-11T06:55:01.381Z,9.20
2022-12-11T06:57:29.332Z,9.00
2022-12-11T07:00:00.208Z,8.50
2022-12-11T07:02:30.983Z,8.80
2022-12-11T07:05:10.967Z,8.80
2022-12-11T07:07:46.940Z,8.50
2022-12-11T07:10:14.870Z,8.70
2022-12-11T07:12:42.737Z,8.60
2022-12-11T07:15:16.169Z,8.60
2022-12-11T07:17:44.050Z,8.50
2022-12-11T07:20:12.165Z,8.80
2022-12-11T07:22:46.055Z,8.90
2022-12-11T07:25:16.175Z,8.50
2022-12-11T07:28:00.165Z,8.40
2022-12-11T07:30:28.087Z,8.10
2022-12-11T07:33:08.154Z,8.10
2022-12-11T07:35:54.215Z,7.70
2022-12-11T07:38:22.073Z,7.70
2022-12-11T07:40:54.186Z,8.10
2022-12-11T07:43:32.175Z,8.00
2022-12-11T07:46:07.767Z,7.70
2022-12-11T07:48:38.917Z,7.50
2022-12-11T07:51:15.917Z,7.60
2022-12-11T07:53:51.022Z,7.70
2022-12-11T07:56:20.874Z,7.50
2022-12-11T07:58:59.833Z,7.30
2022-12-11T08:01:32.165Z,7.80
2022-12-11T08:04:00.440Z,8.50
2022-12-11T08:06:33.711Z,9.30
2022-12-11T08:09:03.286Z,9.90
2022-12-11T08:11:32.621Z,10.70
2022-12-11T08:14:00.940Z,10.90
2022-12-11T08:16:29.143Z,10.90
2022-12-11T08:18:57.115Z,11.00
2022-12-11T08:21:26.291Z,11.30
2022-12-11T08:23:55.290Z,11.50
2022-12-11T08:26:25.218Z,11.50
2022-12-11T08:29:01.368Z,11.40
2022-12-11T08:31:30.201Z,11.30
2022-12-11T08:34:00.798Z,11.20
2022-12-11T08:36:28.745Z,11.10
2022-12-11T08:38:57.597Z,10.80
2022-12-11T08:41:26.952Z,10.50
2022-12-11T08:43:55.790Z,10.30
2022-12-11T08:46:26.617Z,9.80
2022-12-11T08:48:55.277Z,9.60
2022-12-11T08:51:27.208Z,9.80
2022-12-11T08:53:56.952Z,10.00
2022-12-11T08:56:28.307Z,9.80
2022-12-11T08:59:06.439Z,9.00
2022-12-11T09:01:38.144Z,8.50
2022-12-11T09:04:06.249Z,8.40
2022-12-11T09:06:46.357Z,8.70
2022-12-11T09:09:16.442Z,8.70
2022-12-11T09:11:44.322Z,8.60
2022-12-11T09:14:24.044Z,8.60
2022-12-11T09:16:56.070Z,8.80
2022-12-11T09:19:27.847Z,9.00
2022-12-11T09:22:04.609Z,8.70
2022-12-11T09:24:32.461Z,8.30
2022-12-11T09:27:07.884Z,8.20
2022-12-11T09:29:39.467Z,8.70
2022-12-11T09:32:17.543Z,9.30
2022-12-11T09:35:00.183Z,9.60
2022-12-11T09:37:31.146Z,9.90
2022-12-11T09:40:07.268Z,10.10
2022-12-11T09:42:50.143Z,10.30
2022-12-11T09:45:21.950Z,10.00
2022-12-11T09:47:56.506Z,10.10
2022-12-11T09:50:26.723Z,10.20
2022-12-11T09:53:04.058Z,10.30
2022-12-11T09:55:46.462Z,10.20
2022-12-11T09:58:24.168Z,10.00
2022-12-11T10:00:57.955Z,9.90
2022-12-11T10:04:08.408Z,10.00
2022-12-11T10:06:48.136Z,10.00
2022-12-11T10:09:24.276Z,10.10
2022-12-11T10:12:03.967Z,10.20
2022-12-11T10:14:51.823Z,10.40
2022-12-11T10:17:23.290Z,10.50
2022-12-11T10:19:57.824Z,10.60
2022-12-11T10:22:35.563Z,10.80
2022-12-11T10:25:11.564Z,11.20
2022-12-11T10:28:01.774Z,11.40
2022-12-11T10:30:36.264Z,11.70
2022-12-11T10:33:15.491Z,11.80
2022-12-11T10:35:53.083Z,12.10
2022-12-11T10:38:29.873Z,12.30
2022-12-11T10:40:59.942Z,12.40
2022-12-11T10:43:39.681Z,12.30
2022-12-11T10:46:15.160Z,12.30
2022-12-11T10:48:57.885Z,12.20
2022-12-11T10:51:37.957Z,12.00
2022-12-11T10:54:10.120Z,11.90
2022-12-11T10:56:39.359Z,11.70
2022-12-11T10:59:07.849Z,10.90
2022-12-11T11:01:39.261Z,10.50
2022-12-11T11:04:20.014Z,10.00
2022-12-11T11:06:49.782Z,9.80
2022-12-11T11:09:32.116Z,9.40
2022-12-11T11:12:07.946Z,9.30
2022-12-11T11:14:42.283Z,9.50
2022-12-11T11:17:15.991Z,9.60
2022-12-11T11:19:48.055Z,9.80
2022-12-11T11:22:51.241Z,10.10
2022-12-11T11:25:22.272Z,9.90
2022-12-11T11:27:57.239Z,9.80
2022-12-11T11:30:30.788Z,10.00
2022-12-11T11:33:02.134Z,10.40
2022-12-11T11:35:32.156Z,10.50
2022-12-11T11:38:06.713Z,10.50
2022-12-11T11:40:40.733Z,10.70
2022-12-11T11:46:27.273Z,10.60
2022-12-11T11:49:08.438Z,10.80
2022-12-11T11:51:47.340Z,10.70
2022-12-11T11:54:28.985Z,10.60
2022-12-11T11:56:58.146Z,10.20
2022-12-11T11:59:31.270Z,10.20
2022-12-11T12:01:59.641Z,10.60
2022-12-11T12:04:44.311Z,10.80
2022-12-11T12:07:33.926Z,11.10
2022-12-11T12:10:15.757Z,11.40
2022-12-11T12:12:56.925Z,11.60
2022-12-11T12:15:45.122Z,11.70
2022-12-11T12:18:22.337Z,11.70
2022-12-11T12:21:00.738Z,11.50
2022-12-11T12:23:57.303Z,11.70
2022-12-11T12:26:29.953Z,11.70
2022-12-11T12:29:24.156Z,11.70
2022-12-11T12:32:06.792Z,11.50
2022-12-11T12:34:52.622Z,11.30
2022-12-11T12:37:30.818Z,10.50
2022-12-11T12:40:13.127Z,10.50
2022-12-11T12:42:50.094Z,10.50
2022-12-11T12:45:29.010Z,10.20
2022-12-11T12:47:59.663Z,9.60
2022-12-11T12:50:30.714Z,9.60
2022-12-11T12:52:59.190Z,9.90
2022-12-11T12:55:33.930Z,10.40
2022-12-11T12:58:06.291Z,10.40
2022-12-11T13:00:38.482Z,10.10
2022-12-11T13:06:07.293Z,10.00
2022-12-11T13:08:40.292Z,10.30
2022-12-11T13:11:20.121Z,10.20
2022-12-11T13:14:04.950Z,9.70
2022-12-11T13:16:45.037Z,9.40
2022-12-11T13:19:28.354Z,9.80
2022-12-11T13:22:00.838Z,10.30
2022-12-11T13:24:31.343Z,10.50
2022-12-11T13:27:12.895Z,10.50
2022-12-11T13:29:43.220Z,10.70
2022-12-11T13:32:30.988Z,10.30
2022-12-11T13:35:07.370Z,9.70
2022-12-11T13:37:41.924Z,9.40
2022-12-11T13:40:22.097Z,9.40
2022-12-11T13:42:53.616Z,9.30
2022-12-11T13:45:44.216Z,8.70
2022-12-11T13:48:22.456Z,8.20
2022-12-11T13:50:54.800Z,7.90
2022-12-11T13:53:25.845Z,7.60
2022-12-11T13:56:08.362Z,7.80
2022-12-11T13:58:40.192Z,8.20
2022-12-11T14:01:12.356Z,8.10
2022-12-11T14:03:57.181Z,7.90
2022-12-11T14:06:31.318Z,7.70
2022-12-11T14:09:02.541Z,7.70
2022-12-11T14:11:35.369Z,8.00
2022-12-11T14:14:06.858Z,8.10
2022-12-11T14:16:42.310Z,7.70
2022-12-11T14:19:18.846Z,7.40
2022-12-11T14:21:57.470Z,7.10
2022-12-11T14:24:25.570Z,7.40
2022-12-11T14:26:55.181Z,7.70
2022-12-11T14:29:40.775Z,7.60
2022-12-11T14:32:22.385Z,7.40
2022-12-11T14:35:03.063Z,7.20
2022-12-11T14:37:31.402Z,7.40
2022-12-11T14:40:15.362Z,7.70
2022-12-11T14:42:50.151Z,7.60
2022-12-11T14:45:25.874Z,7.40
2022-12-11T14:47:59.586Z,7.10
2022-12-11T14:50:31.886Z,7.10
2022-12-11T14:53:04.165Z,8.00
2022-12-11T14:55:34.833Z,8.60
2022-12-11T14:58:05.002Z,8.90
2022-12-11T15:00:38.542Z,8.80
2022-12-11T15:03:31.570Z,8.70
2022-12-11T15:06:23.966Z,8.90
2022-12-11T15:09:27.008Z,9.00
2022-12-11T15:11:57.464Z,8.50
2022-12-11T15:14:36.394Z,8.30
2022-12-11T15:17:15.163Z,8.50
2022-12-11T15:19:57.847Z,8.50
2022-12-11T15:22:32.249Z,8.10
2022-12-11T15:25:03.096Z,7.70
2022-12-11T15:27:43.198Z,7.60
2022-12-11T15:30:34.561Z,7.90
2022-12-11T15:33:18.435Z,7.90
2022-12-11T15:36:00.319Z,7.50
2022-12-11T15:38:31.109Z,7.20
2022-12-11T15:41:23.827Z,6.90
2022-12-11T15:43:59.064Z,6.90
2022-12-11T15:46:52.077Z,7.30
2022-12-11T15:52:16.661Z,7.00
2022-12-11T15:54:47.395Z,6.80
2022-12-11T15:57:18.580Z,7.00
2022-12-11T16:00:01.717Z,7.00
2022-12-11T16:02:57.916Z,7.40
2022-12-11T16:05:50.347Z,7.70
2022-12-11T16:08:27.059Z,7.30
2022-12-11T16:11:01.205Z,7.30
2022-12-11T16:13:31.291Z,7.50
2022-12-11T16:16:06.429Z,7.50
2022-12-11T16:18:40.450Z,8.00
2022-12-11T16:21:32.287Z,8.40
2022-12-11T16:24:08.837Z,8.20
2022-12-11T16:26:40.826Z,7.90
2022-12-11T16:29:11.786Z,8.20
2022-12-11T16:31:42.398Z,8.70
2022-12-11T16:34:10.693Z,9.10
2022-12-11T16:36:41.346Z,9.10
2022-12-11T16:39:11.937Z,9.10
2022-12-11T16:41:39.874Z,9.10
2022-12-11T16:44:19.837Z,9.20
2022-12-11T16:46:55.887Z,9.00
2022-12-11T16:49:26.511Z,8.50
2022-12-11T16:52:00.488Z,8.10
2022-12-11T16:54:36.963Z,8.10
2022-12-11T16:57:05.001Z,8.20
2022-12-11T16:59:37.080Z,7.70
2022-12-11T17:02:06.322Z,7.20
2022-12-11T17:04:34.257Z,6.90
2022-12-11T17:07:05.326Z,6.60
2022-12-11T17:09:33.852Z,6.70
2022-12-11T17:12:03.334Z,7.10
2022-12-11T17:14:31.305Z,7.10
2022-12-11T17:17:05.347Z,6.90
2022-12-11T17:19:41.918Z,6.60
2022-12-11T17:22:27.605Z,6.60
2022-12-11T17:25:01.325Z,7.00
2022-12-11T17:27:33.641Z,7.10
2022-12-11T17:30:04.685Z,6.90
2022-12-11T17:32:32.574Z,6.60
2022-12-11T17:35:11.060Z,6.70
2022-12-11T17:37:45.638Z,7.20
2022-12-11T17:40:18.765Z,7.50
2022-12-11T17:43:09.132Z,7.10
2022-12-11T17:45:42.814Z,6.80
2022-12-11T17:48:16.604Z,6.60
2022-12-11T17:50:54.225Z,6.80
2022-12-11T17:53:26.300Z,7.20
2022-12-11T17:55:54.240Z,7.20
2022-12-11T17:58:32.737Z,7.00
2022-12-11T18:01:11.535Z,6.80
2022-12-11T18:03:45.601Z,6.60
2022-12-11T18:06:16.137Z,6.90
2022-12-11T18:09:11.767Z,7.20
2022-12-11T18:11:42.510Z,7.10
2022-12-11T18:14:26.605Z,6.90
2022-12-11T18:17:06.462Z,6.70
2022-12-11T18:19:40.226Z,6.50
2022-12-11T18:22:19.405Z,6.80
2022-12-11T18:24:51.246Z,7.20
2022-12-11T18:27:19.200Z,7.00
2022-12-11T18:29:53.084Z,6.90
2022-12-11T18:32:23.984Z,7.00
2022-12-11T18:34:51.885Z,7.20
2022-12-11T18:37:24.707Z,7.80
2022-12-11T18:39:55.620Z,8.00
2022-12-11T18:42:33.728Z,7.10
2022-12-11T18:45:03.398Z,6.80
2022-12-11T18:47:31.389Z,6.70
2022-12-11T18:50:02.604Z,6.80
2022-12-11T18:52:33.658Z,7.10
2022-12-11T18:55:01.554Z,6.90
2022-12-11T18:57:38.070Z,6.70
2022-12-11T19:00:08.833Z,6.60
2022-12-11T19:02:37.055Z,6.90
2022-12-11T19:05:08.289Z,7.30
2022-12-11T19:07:41.966Z,7.30
2022-12-11T19:10:10.558Z,6.90
2022-12-11T19:12:38.457Z,6.60
2022-12-11T19:15:09.212Z,6.30
2022-12-11T19:17:37.990Z,6.50
2022-12-11T19:20:39.865Z,7.10
2022-12-11T19:23:00.796Z,7.20
2022-12-11T19:25:31.084Z,6.90
2022-12-11T19:28:01.897Z,6.80
2022-12-11T19:30:33.938Z,6.80
2022-12-11T19:33:10.827Z,7.30
2022-12-11T19:35:40.925Z,7.80
2022-12-11T19:38:16.800Z,7.60
2022-12-11T19:40:50.578Z,7.30
2022-12-11T19:43:19.571Z,7.00
2022-12-11T19:45:49.106Z,7.10
2022-12-11T19:48:16.953Z,7.60
2022-12-11T19:50:44.808Z,7.70
2022-12-11T19:53:18.825Z,7.40
2022-12-11T19:55:50.726Z,7.10
2022-12-11T19:58:18.789Z,6.90
2022-12-11T20:00:48.203Z,7.30
2022-12-11T20:03:16.133Z,7.80
2022-12-11T20:05:44.132Z,8.20
2022-12-11T20:08:42.977Z,8.50
2022-12-11T20:11:05.822Z,8.70
2022-12-11T20:13:33.734Z,8.50
2022-12-11T20:16:07.260Z,8.30
2022-12-11T20:18:35.633Z,8.40
2022-12-11T20:21:05.740Z,8.60
2022-12-11T20:23:35.068Z,8.60
2022-12-11T20:26:07.531Z,8.50
2022-12-11T20:28:38.367Z,8.50
2022-12-11T20:31:08.963Z,8.30
2022-12-11T20:33:49.836Z,8.30
2022-12-11T20:36:20.032Z,8.60
2022-12-11T20:38:48.059Z,8.90
2022-12-11T20:41:18.821Z,8.90
2022-12-11T20:43:48.921Z,8.60
2022-12-11T20:46:20.218Z,8.80
2022-12-11T20:48:48.689Z,9.00
2022-12-11T20:51:25.221Z,9.10
2022-12-11T20:53:58.200Z,8.90
2022-12-11T20:56:27.849Z,8.70
2022-12-11T20:58:56.481Z,9.00
2022-12-11T21:01:28.112Z,9.20
2022-12-11T21:04:16.841Z,8.80
2022-12-11T21:06:44.719Z,8.20
2022-12-11T21:09:18.820Z,7.80
2022-12-11T21:11:50.364Z,8.00
2022-12-11T21:14:19.413Z,8.20
2022-12-11T21:16:51.671Z,7.80
2022-12-11T21:19:25.595Z,7.40
2022-12-11T21:21:53.594Z,7.10
2022-12-11T21:24:29.670Z,6.80
2022-12-11T21:27:01.775Z,6.60
2022-12-11T21:29:30.286Z,6.60
2022-12-11T21:31:59.969Z,6.50
2022-12-11T21:34:28.257Z,6.90
2022-12-11T21:36:59.231Z,7.30
2022-12-11T21:39:34.743Z,7.10
2022-12-11T21:42:07.151Z,6.90
2022-12-11T21:47:30.539Z,6.50
2022-12-11T21:49:58.570Z,6.30
2022-12-11T21:52:32.526Z,6.40
2022-12-11T21:55:06.886Z,7.00
2022-12-11T21:57:34.993Z,7.20
2022-12-11T22:00:04.294Z,7.00
2022-12-11T22:02:37.572Z,6.70
2022-12-11T22:05:14.044Z,6.40
2022-12-11T22:07:45.341Z,6.20
2022-12-11T22:10:16.319Z,6.50
2022-12-11T22:12:44.219Z,6.60
2022-12-11T22:15:12.485Z,6.40
2022-12-11T22:17:49.178Z,6.20
2022-12-11T22:20:20.113Z,6.10
2022-12-11T22:22:50.826Z,6.20
2022-12-11T22:25:18.918Z,6.50
2022-12-11T22:27:51.178Z,6.50
2022-12-11T22:30:24.207Z,6.30
2022-12-11T22:32:53.773Z,6.10
2022-12-11T22:35:27.258Z,5.90
2022-12-11T22:38:09.589Z,6.20
2022-12-11T22:40:49.372Z,6.60
2022-12-11T22:43:17.552Z,6.30
2022-12-11T22:45:45.489Z,6.10
2022-12-11T22:48:17.430Z,5.90
2022-12-11T22:50:45.341Z,6.20
2022-12-11T22:53:16.109Z,6.70
2022-12-11T22:55:44.003Z,6.60
2022-12-11T22:58:18.578Z,6.30
2022-12-11T23:00:52.219Z,6.10
2022-12-11T23:03:21.510Z,6.30
2022-12-11T23:05:49.390Z,6.70
2022-12-11T23:08:22.064Z,6.50
2022-12-11T23:10:58.918Z,6.30
2022-12-11T23:13:26.849Z,6.10
2022-12-11T23:15:57.812Z,6.40
2022-12-11T23:18:32.914Z,6.70
2022-12-11T23:21:00.909Z,6.40
2022-12-11T23:23:29.142Z,6.10
2022-12-11T23:26:00.077Z,6.20
2022-12-11T23:28:27.988Z,6.50
2022-12-11T23:31:02.129Z,6.40
2022-12-11T23:33:36.277Z,6.20
2022-12-11T23:36:04.995Z,6.10
2022-12-11T23:38:32.931Z,6.50
2022-12-11T23:41:10.405Z,6.50
2022-12-11T23:43:44.566Z,6.20
2022-12-11T23:46:17.106Z,6.00
2022-12-11T23:48:46.605Z,6.30
2022-12-11T23:51:22.229Z,6.80
2022-12-11T23:53:50.663Z,6.70
2022-12-11T23:56:20.364Z,6.40
2022-12-11T23:58:48.782Z,6.20
